createdAt,value
2018-06-21T00:00:19.077Z,20.40
2018-06-21T00:02:47.135Z,20.30
2018-06-21T00:05:15.201Z,20.30
2018-06-21T00:07:43.260Z,20.20
2018-06-21T00:10:11.320Z,20.20
2018-06-21T00:12:39.389Z,20.10
2018-06-21T00:15:07.440Z,20.10
2018-06-21T00:17:35.504Z,20.10
2018-06-21T00:20:03.569Z,20.10
2018-06-21T00:22:31.649Z,20.00
2018-06-21T00:24:59.697Z,20.00
2018-06-21T00:27:27.768Z,19.90
2018-06-21T00:29:55.820Z,19.90
2018-06-21T00:32:23.880Z,19.90
2018-06-21T00:34:51.941Z,19.80
2018-06-21T00:37:20.008Z,19.80
2018-06-21T00:42:16.129Z,19.70
2018-06-21T00:44:44.190Z,19.70
2018-06-21T00:47:12.248Z,19.70
2018-06-21T00:49:40.304Z,19.70
2018-06-21T00:52:08.377Z,19.70
2018-06-21T00:54:36.436Z,19.60
2018-06-21T00:57:04.526Z,19.60
2018-06-21T00:59:32.584Z,19.60
2018-06-21T01:02:00.648Z,19.50
2018-06-21T01:04:28.716Z,19.50
2018-06-21T01:06:56.772Z,19.50
2018-06-21T01:09:24.832Z,19.50
2018-06-21T01:11:52.900Z,19.50
2018-06-21T01:14:20.960Z,19.50
2018-06-21T01:16:49.028Z,19.50
2018-06-21T01:19:17.085Z,19.50
2018-06-21T01:21:45.150Z,19.50
2018-06-21T01:24:13.217Z,19.50
2018-06-21T01:26:41.281Z,19.50
2018-06-21T01:29:09.345Z,19.50
2018-06-21T01:31:37.406Z,19.50
2018-06-21T01:34:05.464Z,19.50
2018-06-21T01:36:33.532Z,19.50
2018-06-21T01:39:01.612Z,19.50
2018-06-21T01:41:29.637Z,19.50
2018-06-21T01:43:57.685Z,19.50
2018-06-21T01:46:32.125Z,19.50
2018-06-21T01:49:00.165Z,19.50
2018-06-21T01:51:28.209Z,19.50
2018-06-21T01:53:56.273Z,19.50
2018-06-21T01:56:24.340Z,19.50
2018-06-21T01:58:52.397Z,19.50
2018-06-21T02:01:20.464Z,19.40
2018-06-21T02:03:48.532Z,19.40
2018-06-21T02:06:16.573Z,19.40
2018-06-21T02:08:44.617Z,19.40
2018-06-21T02:11:12.652Z,19.40
2018-06-21T02:13:40.693Z,19.30
2018-06-21T02:16:08.738Z,19.30
2018-06-21T02:18:36.772Z,19.30
2018-06-21T02:21:04.823Z,19.20
2018-06-21T02:23:32.856Z,19.20
2018-06-21T02:26:00.896Z,19.20
2018-06-21T02:28:28.936Z,19.10
2018-06-21T02:30:56.977Z,19.10
2018-06-21T02:33:25.017Z,19.00
2018-06-21T02:35:53.079Z,19.00
2018-06-21T02:38:21.129Z,19.00
2018-06-21T02:40:49.186Z,18.90
2018-06-21T02:43:17.238Z,18.90
2018-06-21T02:45:45.294Z,18.90
2018-06-21T02:48:13.337Z,18.80
2018-06-21T02:50:41.385Z,18.80
2018-06-21T02:53:09.421Z,18.80
2018-06-21T02:55:37.464Z,18.70
2018-06-21T02:58:05.501Z,18.70
2018-06-21T03:00:33.540Z,18.70
2018-06-21T03:03:01.612Z,18.70
2018-06-21T03:05:29.645Z,18.70
2018-06-21T03:07:57.689Z,18.70
2018-06-21T03:10:25.724Z,18.60
2018-06-21T03:12:53.770Z,18.60
2018-06-21T03:15:21.879Z,18.60
2018-06-21T03:17:49.858Z,18.60
2018-06-21T03:20:17.900Z,18.60
2018-06-21T03:22:45.984Z,18.60
2018-06-21T03:25:14.003Z,18.70
2018-06-21T03:27:42.060Z,18.50
2018-06-21T03:30:10.096Z,18.50
2018-06-21T03:32:38.150Z,18.50
2018-06-21T03:35:06.189Z,18.50
2018-06-21T03:37:34.256Z,18.50
2018-06-21T03:40:02.313Z,18.60
2018-06-21T03:42:30.397Z,18.50
2018-06-21T03:44:58.446Z,18.60
2018-06-21T03:47:26.501Z,18.60
2018-06-21T03:49:54.570Z,18.60
2018-06-21T03:52:22.658Z,18.60
2018-06-21T03:54:50.709Z,18.70
2018-06-21T03:57:18.857Z,18.70
2018-06-21T03:59:46.924Z,18.70
2018-06-21T04:02:14.976Z,18.80
2018-06-21T04:04:43.044Z,18.80
2018-06-21T04:07:11.109Z,18.70
2018-06-21T04:09:39.180Z,18.80
2018-06-21T04:12:07.264Z,18.80
2018-06-21T04:14:35.333Z,18.80
2018-06-21T04:17:03.398Z,18.80
2018-06-21T04:19:31.464Z,18.90
2018-06-21T04:21:59.533Z,18.90
2018-06-21T04:24:27.596Z,18.90
2018-06-21T04:26:55.820Z,18.90
2018-06-21T04:29:23.885Z,18.90
2018-06-21T04:31:51.941Z,18.90
2018-06-21T04:34:20.006Z,18.90
2018-06-21T04:36:48.061Z,18.90
2018-06-21T04:39:16.114Z,19.00
2018-06-21T04:41:44.183Z,19.00
2018-06-21T04:44:12.218Z,19.10
2018-06-21T04:46:40.264Z,19.10
2018-06-21T04:49:08.302Z,19.20
2018-06-21T04:51:36.349Z,19.20
2018-06-21T04:54:04.384Z,19.20
2018-06-21T04:56:32.437Z,19.30
2018-06-21T04:59:00.476Z,19.30
2018-06-21T05:01:28.525Z,19.30
2018-06-21T05:03:56.720Z,19.40
2018-06-21T05:06:24.823Z,19.40
2018-06-21T05:08:52.810Z,19.50
2018-06-21T05:11:20.865Z,19.40
2018-06-21T05:13:48.896Z,19.50
2018-06-21T05:16:16.945Z,19.40
2018-06-21T05:18:44.981Z,19.50
2018-06-21T05:21:13.025Z,19.60
2018-06-21T05:23:41.104Z,19.70
2018-06-21T05:26:09.148Z,19.80
2018-06-21T05:28:37.189Z,19.90
2018-06-21T05:31:05.236Z,20.00
2018-06-21T05:33:33.293Z,20.10
2018-06-21T05:36:01.360Z,20.30
2018-06-21T05:38:29.420Z,20.40
2018-06-21T05:43:31.897Z,20.60
2018-06-21T05:45:59.962Z,20.70
2018-06-21T05:48:28.022Z,20.80
2018-06-21T05:50:56.090Z,21.00
2018-06-21T05:53:24.136Z,21.10
2018-06-21T05:55:52.464Z,21.30
2018-06-21T05:58:20.526Z,21.50
2018-06-21T06:00:48.576Z,21.70
2018-06-21T06:03:16.684Z,21.80
2018-06-21T06:05:44.740Z,21.90
2018-06-21T06:08:12.858Z,22.10
2018-06-21T06:10:40.892Z,22.40
2018-06-21T06:13:08.956Z,22.60
2018-06-21T06:18:04.860Z,23.00
2018-06-21T06:20:32.917Z,23.30
2018-06-21T06:23:00.993Z,23.70
2018-06-21T06:25:29.057Z,24.50
2018-06-21T06:27:57.116Z,25.50
2018-06-21T06:30:25.182Z,26.60
2018-06-21T06:32:53.242Z,27.50
2018-06-21T06:35:21.301Z,28.30
2018-06-21T06:37:49.360Z,29.00
2018-06-21T06:40:17.425Z,29.30
2018-06-21T06:42:45.457Z,29.50
2018-06-21T06:45:13.488Z,29.80
2018-06-21T06:47:41.536Z,29.80
2018-06-21T06:50:09.621Z,29.70
2018-06-21T06:52:38.470Z,29.90
2018-06-21T06:55:06.523Z,30.40
2018-06-21T06:57:34.565Z,30.90
2018-06-21T07:00:02.619Z,31.40
2018-06-21T07:02:30.664Z,32.10
2018-06-21T07:04:58.733Z,32.70
2018-06-21T07:07:26.788Z,32.70
2018-06-21T07:09:55.061Z,32.70
2018-06-21T07:12:23.128Z,32.50
2018-06-21T07:14:51.203Z,32.10
2018-06-21T07:17:19.242Z,31.50
2018-06-21T07:19:47.288Z,30.70
2018-06-21T07:22:15.329Z,30.40
2018-06-21T07:24:43.376Z,30.00
2018-06-21T07:27:11.479Z,29.70
2018-06-21T07:29:39.569Z,29.60
2018-06-21T07:32:07.618Z,29.40
2018-06-21T07:34:35.745Z,29.10
2018-06-21T07:37:03.824Z,28.80
2018-06-21T07:41:59.721Z,28.60
2018-06-21T07:44:27.801Z,28.50
2018-06-21T07:46:55.939Z,28.50
2018-06-21T07:49:23.928Z,28.50
2018-06-21T07:51:52.085Z,28.60
2018-06-21T07:54:20.145Z,28.80
2018-06-21T07:56:48.216Z,29.00
2018-06-21T07:59:16.293Z,29.20
2018-06-21T08:01:44.373Z,29.30
2018-06-21T08:04:12.432Z,29.10
2018-06-21T08:06:40.505Z,29.00
2018-06-21T08:09:10.408Z,28.60
2018-06-21T08:11:38.567Z,28.50
2018-06-21T08:14:06.641Z,28.60
2018-06-21T08:16:34.977Z,28.60
2018-06-21T08:19:03.038Z,28.70
2018-06-21T08:21:31.181Z,28.70
2018-06-21T08:23:59.237Z,28.80
2018-06-21T08:26:27.328Z,28.80
2018-06-21T08:28:55.380Z,28.80
2018-06-21T08:31:23.453Z,28.90
2018-06-21T08:33:51.525Z,28.90
2018-06-21T08:36:19.568Z,28.90
2018-06-21T08:38:47.674Z,29.00
2018-06-21T08:41:15.668Z,29.10
2018-06-21T08:43:43.713Z,29.00
2018-06-21T08:46:11.756Z,28.90
2018-06-21T08:48:39.855Z,29.10
2018-06-21T08:51:07.885Z,29.20
2018-06-21T08:53:35.934Z,29.20
2018-06-21T08:56:03.976Z,29.30
2018-06-21T08:58:32.039Z,29.50
2018-06-21T09:01:00.083Z,29.80
2018-06-21T09:03:28.125Z,29.90
2018-06-21T09:05:56.174Z,29.90
2018-06-21T09:08:24.253Z,29.80
2018-06-21T09:10:52.286Z,29.90
2018-06-21T09:13:20.356Z,30.30
2018-06-21T09:15:48.413Z,30.30
2018-06-21T09:18:16.462Z,30.50
2018-06-21T09:20:44.525Z,30.40
2018-06-21T09:23:12.568Z,30.50
2018-06-21T09:25:40.622Z,30.50
2018-06-21T09:28:08.665Z,30.20
2018-06-21T09:30:36.724Z,29.90
2018-06-21T09:33:04.785Z,29.60
2018-06-21T09:35:32.836Z,29.60
2018-06-21T09:38:06.464Z,29.70
2018-06-21T09:40:39.909Z,29.90
2018-06-21T09:43:13.416Z,30.10
2018-06-21T09:45:46.892Z,30.20
2018-06-21T09:48:20.455Z,30.20
2018-06-21T09:50:48.525Z,30.00
2018-06-21T09:53:16.597Z,29.90
2018-06-21T09:55:44.669Z,29.90
2018-06-21T09:58:12.725Z,29.90
2018-06-21T10:00:46.209Z,30.30
2018-06-21T10:03:14.269Z,30.20
2018-06-21T10:05:42.341Z,30.30
2018-06-21T10:08:10.406Z,30.40
2018-06-21T10:10:38.520Z,29.90
2018-06-21T10:13:06.583Z,28.90
2018-06-21T10:15:34.666Z,27.70
2018-06-21T10:18:02.720Z,26.80
2018-06-21T10:20:30.846Z,26.30
2018-06-21T10:22:58.876Z,25.80
2018-06-21T10:25:26.924Z,25.50
2018-06-21T10:27:55.010Z,25.10
2018-06-21T10:30:23.068Z,24.80
2018-06-21T10:32:51.688Z,24.60
2018-06-21T10:35:19.765Z,24.40
2018-06-21T10:37:47.957Z,24.20
2018-06-21T10:40:16.004Z,23.80
2018-06-21T10:42:44.049Z,23.50
2018-06-21T10:45:12.176Z,23.20
2018-06-21T10:47:40.216Z,23.00
2018-06-21T10:50:08.261Z,23.00
2018-06-21T10:52:36.364Z,23.00
2018-06-21T10:55:04.425Z,22.90
2018-06-21T10:57:32.641Z,22.80
2018-06-21T11:00:00.841Z,22.60
2018-06-21T11:02:28.901Z,22.60
2018-06-21T11:04:56.980Z,22.60
2018-06-21T11:07:25.089Z,22.60
2018-06-21T11:09:53.124Z,22.60
2018-06-21T11:14:49.090Z,22.60
2018-06-21T11:17:17.195Z,22.60
2018-06-21T11:19:45.241Z,22.60
2018-06-21T11:22:13.289Z,22.50
2018-06-21T11:24:41.340Z,22.50
2018-06-21T11:27:09.396Z,22.60
2018-06-21T11:29:37.436Z,22.80
2018-06-21T11:32:05.480Z,23.20
2018-06-21T11:37:01.412Z,24.40
2018-06-21T11:39:29.472Z,25.20
2018-06-21T11:41:57.532Z,26.00
2018-06-21T11:44:25.588Z,26.70
2018-06-21T11:46:53.645Z,27.50
2018-06-21T11:49:21.713Z,28.10
2018-06-21T11:51:49.764Z,28.30
2018-06-21T11:54:17.841Z,28.60
2018-06-21T11:56:45.899Z,28.90
2018-06-21T11:59:13.957Z,28.90
2018-06-21T12:01:42.038Z,28.80
2018-06-21T12:04:10.101Z,28.70
2018-06-21T12:06:38.252Z,28.50
2018-06-21T12:09:08.177Z,28.30
2018-06-21T12:11:36.266Z,28.20
2018-06-21T12:14:04.410Z,28.00
2018-06-21T12:16:32.465Z,28.10
2018-06-21T12:19:00.537Z,28.60
2018-06-21T12:21:28.596Z,28.90
2018-06-21T12:23:56.664Z,29.20
2018-06-21T12:26:24.798Z,29.00
2018-06-21T12:28:52.806Z,28.70
2018-06-21T12:31:20.868Z,28.30
2018-06-21T12:33:48.932Z,28.00
2018-06-21T12:36:16.981Z,28.00
2018-06-21T12:38:45.024Z,28.20
2018-06-21T12:41:13.060Z,28.20
2018-06-21T12:43:41.590Z,28.30
2018-06-21T12:46:09.561Z,28.90
2018-06-21T12:48:37.600Z,29.10
2018-06-21T12:51:05.652Z,29.40
2018-06-21T12:53:33.700Z,29.30
2018-06-21T12:56:01.766Z,28.70
2018-06-21T12:58:30.013Z,28.40
2018-06-21T13:00:58.061Z,28.50
2018-06-21T13:03:26.097Z,28.30
2018-06-21T13:05:54.141Z,27.90
2018-06-21T13:09:32.452Z,27.80
2018-06-21T13:12:39.915Z,27.80
2018-06-21T13:15:07.998Z,27.70
2018-06-21T13:17:36.040Z,27.90
2018-06-21T13:22:32.761Z,28.30
2018-06-21T13:25:00.821Z,28.50
2018-06-21T13:27:28.872Z,28.60
2018-06-21T13:29:56.921Z,28.70
2018-06-21T13:32:24.964Z,28.70
2018-06-21T13:34:52.996Z,28.50
2018-06-21T13:37:21.044Z,28.20
2018-06-21T13:39:49.084Z,28.30
2018-06-21T13:42:17.141Z,28.30
2018-06-21T13:44:45.186Z,28.30
2018-06-21T13:47:13.261Z,28.30
2018-06-21T13:49:41.291Z,28.30
2018-06-21T13:52:09.325Z,28.20
2018-06-21T13:54:37.390Z,28.00
2018-06-21T13:57:05.429Z,28.10
2018-06-21T13:59:33.465Z,28.10
2018-06-21T14:02:01.514Z,28.20
2018-06-21T14:04:29.556Z,28.20
2018-06-21T14:06:57.596Z,28.20
2018-06-21T14:09:25.656Z,28.30
2018-06-21T14:11:53.701Z,28.30
2018-06-21T14:14:21.741Z,28.30
2018-06-21T14:16:49.776Z,28.20
2018-06-21T14:19:17.891Z,28.30
2018-06-21T14:21:45.875Z,28.30
2018-06-21T14:24:14.880Z,28.30
2018-06-21T14:26:43.496Z,28.10
2018-06-21T14:29:11.557Z,28.10
2018-06-21T14:31:39.605Z,27.80
2018-06-21T14:34:07.645Z,27.50
2018-06-21T14:36:35.696Z,27.60
2018-06-21T14:39:05.800Z,27.60
2018-06-21T14:41:33.844Z,27.90
2018-06-21T14:44:01.887Z,28.10
2018-06-21T14:46:29.936Z,28.30
2018-06-21T14:48:58.008Z,28.30
2018-06-21T14:51:26.001Z,28.40
2018-06-21T14:53:54.049Z,28.40
2018-06-21T14:56:22.080Z,28.40
2018-06-21T14:58:50.152Z,28.50
2018-06-21T15:01:18.209Z,28.40
2018-06-21T15:03:46.256Z,28.00
2018-06-21T15:06:14.284Z,27.90
2018-06-21T15:08:42.325Z,27.80
2018-06-21T15:11:10.389Z,27.60
2018-06-21T15:13:38.421Z,27.50
2018-06-21T15:16:06.492Z,27.20
2018-06-21T15:18:34.510Z,27.00
2018-06-21T15:21:02.560Z,27.00
2018-06-21T15:23:30.609Z,26.80
2018-06-21T15:25:58.857Z,26.60
2018-06-21T15:28:26.993Z,26.30
2018-06-21T15:30:55.077Z,26.20
2018-06-21T15:35:50.977Z,26.00
2018-06-21T15:38:19.677Z,25.70
2018-06-21T15:40:47.729Z,25.60
2018-06-21T15:43:15.769Z,25.30
2018-06-21T15:45:43.829Z,25.10
2018-06-21T15:48:11.885Z,25.00
2018-06-21T15:50:39.900Z,24.90
2018-06-21T15:53:07.937Z,25.00
2018-06-21T15:58:03.918Z,24.60
2018-06-21T16:02:59.851Z,24.50
2018-06-21T16:05:27.901Z,24.40
2018-06-21T16:07:55.937Z,24.50
2018-06-21T16:10:23.985Z,24.40
2018-06-21T16:12:52.044Z,24.40
2018-06-21T16:15:20.139Z,24.20
2018-06-21T16:17:48.154Z,24.10
2018-06-21T16:20:16.205Z,24.00
2018-06-21T16:22:44.295Z,24.10
2018-06-21T16:25:12.324Z,23.90
2018-06-21T16:27:40.369Z,23.90
2018-06-21T16:30:08.457Z,23.90
2018-06-21T16:32:36.525Z,23.70
2018-06-21T16:35:04.573Z,23.60
2018-06-21T16:37:32.628Z,23.50
2018-06-21T16:40:01.080Z,23.30
2018-06-21T16:42:29.122Z,23.20
2018-06-21T16:44:57.209Z,23.20
2018-06-21T16:47:25.349Z,23.10
2018-06-21T16:49:53.381Z,23.00
2018-06-21T16:52:21.437Z,22.90
2018-06-21T16:54:49.472Z,22.80
2018-06-21T16:57:17.595Z,22.70
2018-06-21T16:59:45.664Z,22.70
2018-06-21T17:02:13.769Z,22.60
2018-06-21T17:04:41.761Z,22.50
2018-06-21T17:07:09.808Z,22.30
2018-06-21T17:09:37.845Z,22.20
2018-06-21T17:12:05.949Z,22.00
2018-06-21T17:14:33.981Z,22.00
2018-06-21T17:17:02.063Z,21.90
2018-06-21T17:19:30.097Z,21.80
2018-06-21T17:21:58.132Z,21.80
2018-06-21T17:24:26.186Z,21.90
2018-06-21T17:26:54.226Z,21.80
2018-06-21T17:29:22.301Z,21.60
2018-06-21T17:31:50.345Z,21.50
2018-06-21T17:34:18.661Z,21.40
2018-06-21T17:36:46.793Z,21.30
2018-06-21T17:39:14.749Z,21.20
2018-06-21T17:41:42.801Z,21.20
2018-06-21T17:44:10.849Z,21.00
2018-06-21T17:46:38.889Z,20.80
2018-06-21T17:49:06.937Z,20.80
2018-06-21T17:51:35.099Z,20.70
2018-06-21T17:54:03.125Z,20.60
2018-06-21T17:56:31.169Z,20.50
2018-06-21T17:58:59.225Z,20.40
2018-06-21T18:01:27.282Z,20.10
2018-06-21T18:03:58.756Z,20.00
2018-06-21T18:06:26.800Z,20.00
2018-06-21T18:08:54.845Z,20.00
2018-06-21T18:11:22.889Z,20.00
2018-06-21T18:13:50.924Z,19.80
2018-06-21T18:16:18.986Z,19.70
2018-06-21T18:18:47.099Z,19.60
2018-06-21T18:21:15.152Z,19.50
2018-06-21T18:23:43.212Z,19.40
2018-06-21T18:26:11.259Z,19.30
2018-06-21T18:28:39.309Z,19.20
2018-06-21T18:31:07.361Z,19.10
2018-06-21T18:33:35.401Z,18.90
2018-06-21T18:36:03.461Z,18.90
2018-06-21T18:38:31.512Z,18.80
2018-06-21T18:40:59.560Z,18.70
2018-06-21T18:43:27.594Z,18.60
2018-06-21T18:45:55.647Z,18.50
2018-06-21T18:48:23.683Z,18.40
2018-06-21T18:50:51.737Z,18.30
2018-06-21T18:53:19.802Z,18.20
2018-06-21T18:55:47.878Z,18.20
2018-06-21T18:58:15.950Z,18.20
2018-06-21T19:00:44.001Z,18.10
2018-06-21T19:03:12.061Z,18.10
2018-06-21T19:05:40.125Z,18.00
2018-06-21T19:08:13.672Z,18.00
2018-06-21T19:10:47.310Z,17.90
2018-06-21T19:13:15.289Z,17.90
2018-06-21T19:15:43.345Z,17.70
2018-06-21T19:18:11.404Z,17.60
2018-06-21T19:20:39.536Z,17.50
2018-06-21T19:23:07.698Z,17.50
2018-06-21T19:25:35.806Z,17.30
2018-06-21T19:28:03.868Z,17.20
2018-06-21T19:30:31.933Z,17.10
2018-06-21T19:35:34.639Z,17.00
2018-06-21T19:38:02.713Z,16.80
2018-06-21T19:40:30.769Z,16.80
2018-06-21T19:42:58.859Z,16.80
2018-06-21T19:45:26.995Z,16.70
2018-06-21T19:47:55.296Z,16.70
2018-06-21T19:50:23.360Z,16.60
2018-06-21T19:52:51.420Z,16.60
2018-06-21T19:55:19.488Z,16.50
2018-06-21T19:57:47.548Z,16.50
2018-06-21T20:00:15.650Z,16.40
2018-06-21T20:02:49.154Z,16.30
2018-06-21T20:05:17.208Z,16.30
2018-06-21T20:07:45.274Z,16.30
2018-06-21T20:10:13.360Z,16.30
2018-06-21T20:12:41.423Z,16.20
2018-06-21T20:15:09.497Z,16.10
2018-06-21T20:17:37.560Z,16.10
2018-06-21T20:20:11.185Z,16.10
2018-06-21T20:22:39.244Z,16.10
2018-06-21T20:25:07.476Z,16.20
2018-06-21T20:27:35.533Z,16.10
2018-06-21T20:30:03.596Z,16.10
2018-06-21T20:32:31.661Z,16.00
2018-06-21T20:34:59.761Z,16.00
2018-06-21T20:37:27.821Z,15.90
2018-06-21T20:39:55.904Z,15.90
2018-06-21T20:42:23.956Z,15.90
2018-06-21T20:44:52.025Z,15.80
2018-06-21T20:47:20.273Z,15.70
2018-06-21T20:49:48.341Z,15.70
2018-06-21T20:52:21.804Z,15.70
2018-06-21T20:54:49.882Z,15.70
2018-06-21T20:57:17.946Z,15.60
2018-06-21T20:59:45.996Z,15.60
2018-06-21T21:02:14.094Z,15.50
2018-06-21T21:05:22.943Z,15.40
2018-06-21T21:07:51.281Z,15.40
2018-06-21T21:10:19.749Z,15.30
2018-06-21T21:12:47.802Z,15.20
2018-06-21T21:15:16.121Z,15.20
2018-06-21T21:17:44.169Z,15.20
2018-06-21T21:20:12.276Z,15.20
2018-06-21T21:22:40.976Z,15.20
2018-06-21T21:25:09.057Z,15.10
2018-06-21T21:27:37.137Z,15.10
2018-06-21T21:30:06.621Z,15.00
2018-06-21T21:32:34.721Z,15.00
2018-06-21T21:35:02.781Z,15.00
2018-06-21T21:37:30.852Z,15.00
2018-06-21T21:40:01.189Z,15.00
2018-06-21T21:42:30.173Z,14.90
2018-06-21T21:44:58.205Z,14.90
2018-06-21T21:47:26.289Z,14.90
2018-06-21T21:49:54.827Z,14.80
2018-06-21T21:52:23.033Z,14.80
2018-06-21T21:54:51.310Z,14.70
2018-06-21T21:57:19.605Z,14.60
2018-06-21T21:59:48.184Z,14.50
2018-06-21T22:02:16.897Z,14.40
2018-06-21T22:04:45.484Z,14.30
2018-06-21T22:07:13.554Z,14.30
2018-06-21T22:09:41.761Z,14.30
2018-06-21T22:12:09.948Z,14.30
2018-06-21T22:14:38.237Z,14.30
2018-06-21T22:17:06.285Z,14.20
2018-06-21T22:19:34.335Z,14.30
2018-06-21T22:22:02.389Z,14.30
2018-06-21T22:24:30.417Z,14.20
2018-06-21T22:26:58.461Z,14.20
2018-06-21T22:29:26.508Z,14.10
2018-06-21T22:31:54.548Z,14.10
2018-06-21T22:34:22.580Z,14.10
2018-06-21T22:36:50.637Z,14.10
2018-06-21T22:39:18.672Z,14.10
2018-06-21T22:41:46.716Z,14.00
2018-06-21T22:44:14.757Z,14.00
2018-06-21T22:46:42.945Z,14.00
2018-06-21T22:49:10.986Z,14.00
2018-06-21T22:51:39.028Z,14.00
2018-06-21T22:54:07.636Z,13.90
2018-06-21T22:56:35.685Z,13.90
2018-06-21T22:59:03.736Z,13.80
2018-06-21T23:01:31.777Z,13.70
2018-06-21T23:03:59.837Z,13.60
2018-06-21T23:06:27.964Z,13.70
2018-06-21T23:08:56.018Z,13.60
2018-06-21T23:11:24.170Z,13.70
2018-06-21T23:13:52.217Z,13.60
2018-06-21T23:16:20.249Z,13.60
2018-06-21T23:18:59.890Z,13.60
2018-06-21T23:21:27.957Z,13.50
2018-06-21T23:23:56.010Z,13.50
2018-06-21T23:26:24.046Z,13.50
2018-06-21T23:28:52.104Z,13.50
2018-06-21T23:33:48.165Z,13.50
2018-06-21T23:36:16.233Z,13.40
2018-06-21T23:38:44.326Z,13.40
2018-06-21T23:41:12.372Z,13.40
2018-06-21T23:43:40.441Z,13.40
2018-06-21T23:46:08.493Z,13.40
2018-06-21T23:48:36.563Z,13.30
2018-06-21T23:51:04.625Z,13.20
2018-06-21T23:53:32.705Z,13.30
2018-06-21T23:56:00.763Z,13.30
2018-06-21T23:58:28.920Z,13.20
